sensor_id;sensor_type;location;lat;lon;timestamp;P1;durP1;ratioP1;P2;durP2;ratioP2
31112;SDS011;17763;48.730;9.136;2023-05-07T00:00:29;4.95;;;4.43;;
31112;SDS011;17763;48.730;9.136;2023-05-07T00:02:55;4.80;;;4.40;;
31112;SDS011;17763;48.730;9.136;2023-05-07T00:05:21;6.00;;;4.53;;
31112;SDS011;17763;48.730;9.136;2023-05-07T00:07:46;5.28;;;4.88;;
31112;SDS011;17763;48.730;9.136;2023-05-07T00:10:12;5.25;;;4.75;;
31112;SDS011;17763;48.730;9.136;2023-05-07T00:12:38;6.10;;;5.38;;
31112;SDS011;17763;48.730;9.136;2023-05-07T00:15:07;5.25;;;4.85;;
31112;SDS011;17763;48.730;9.136;2023-05-07T00:17:34;5.53;;;4.78;;
31112;SDS011;17763;48.730;9.136;2023-05-07T00:19:59;10.75;;;5.25;;
31112;SDS011;17763;48.730;9.136;2023-05-07T00:22:25;5.65;;;4.43;;
31112;SDS011;17763;48.730;9.136;2023-05-07T00:24:55;5.22;;;4.72;;
31112;SDS011;17763;48.730;9.136;2023-05-07T00:27:23;4.72;;;4.22;;
31112;SDS011;17763;48.730;9.136;2023-05-07T00:29:52;5.32;;;4.82;;
31112;SDS011;17763;48.730;9.136;2023-05-07T00:32:17;5.50;;;4.78;;
31112;SDS011;17763;48.730;9.136;2023-05-07T00:34:43;5.15;;;4.65;;
31112;SDS011;17763;48.730;9.136;2023-05-07T00:37:09;4.60;;;4.30;;
31112;SDS011;17763;48.730;9.136;2023-05-07T00:39:37;5.40;;;4.88;;
31112;SDS011;17763;48.730;9.136;2023-05-07T00:42:03;5.50;;;4.10;;
31112;SDS011;17763;48.730;9.136;2023-05-07T00:44:29;5.88;;;4.35;;
31112;SDS011;17763;48.730;9.136;2023-05-07T00:46:55;5.07;;;4.63;;
31112;SDS011;17763;48.730;9.136;2023-05-07T00:49:23;5.60;;;4.97;;
31112;SDS011;17763;48.730;9.136;2023-05-07T00:51:56;4.65;;;4.25;;
31112;SDS011;17763;48.730;9.136;2023-05-07T00:54:22;4.65;;;4.30;;
31112;SDS011;17763;48.730;9.136;2023-05-07T00:56:48;4.65;;;4.22;;
31112;SDS011;17763;48.730;9.136;2023-05-07T00:59:14;4.45;;;4.13;;
31112;SDS011;17763;48.730;9.136;2023-05-07T01:01:40;6.25;;;4.03;;
31112;SDS011;17763;48.730;9.136;2023-05-07T01:04:06;5.07;;;4.68;;
31112;SDS011;17763;48.730;9.136;2023-05-07T01:06:34;4.40;;;4.00;;
31112;SDS011;17763;48.730;9.136;2023-05-07T01:08:59;4.97;;;4.15;;
31112;SDS011;17763;48.730;9.136;2023-05-07T01:11:26;9.10;;;6.70;;
31112;SDS011;17763;48.730;9.136;2023-05-07T01:13:52;8.05;;;6.55;;
31112;SDS011;17763;48.730;9.136;2023-05-07T01:16:18;8.38;;;6.45;;
31112;SDS011;17763;48.730;9.136;2023-05-07T01:18:44;6.65;;;5.90;;
31112;SDS011;17763;48.730;9.136;2023-05-07T01:21:12;8.27;;;5.60;;
31112;SDS011;17763;48.730;9.136;2023-05-07T01:23:40;5.13;;;4.72;;
31112;SDS011;17763;48.730;9.136;2023-05-07T01:26:07;5.30;;;4.80;;
31112;SDS011;17763;48.730;9.136;2023-05-07T01:28:32;4.82;;;4.50;;
31112;SDS011;17763;48.730;9.136;2023-05-07T01:31:00;4.70;;;4.40;;
31112;SDS011;17763;48.730;9.136;2023-05-07T01:33:31;4.77;;;4.37;;
31112;SDS011;17763;48.730;9.136;2023-05-07T01:36:00;5.22;;;4.75;;
31112;SDS011;17763;48.730;9.136;2023-05-07T01:38:28;7.07;;;5.55;;
31112;SDS011;17763;48.730;9.136;2023-05-07T01:40:55;5.25;;;4.57;;
31112;SDS011;17763;48.730;9.136;2023-05-07T01:43:21;5.45;;;4.95;;
31112;SDS011;17763;48.730;9.136;2023-05-07T01:45:47;6.97;;;5.22;;
31112;SDS011;17763;48.730;9.136;2023-05-07T01:48:14;6.35;;;5.03;;
31112;SDS011;17763;48.730;9.136;2023-05-07T01:50:41;4.78;;;4.35;;
31112;SDS011;17763;48.730;9.136;2023-05-07T01:53:08;5.50;;;4.88;;
31112;SDS011;17763;48.730;9.136;2023-05-07T01:55:33;6.57;;;5.40;;
31112;SDS011;17763;48.730;9.136;2023-05-07T01:58:01;5.43;;;4.78;;
31112;SDS011;17763;48.730;9.136;2023-05-07T02:00:32;7.60;;;5.43;;
31112;SDS011;17763;48.730;9.136;2023-05-07T02:03:05;6.70;;;4.85;;
31112;SDS011;17763;48.730;9.136;2023-05-07T02:05:33;5.40;;;4.97;;
31112;SDS011;17763;48.730;9.136;2023-05-07T02:08:02;5.47;;;4.93;;
31112;SDS011;17763;48.730;9.136;2023-05-07T02:10:28;4.13;;;3.75;;
31112;SDS011;17763;48.730;9.136;2023-05-07T02:12:54;5.60;;;5.10;;
31112;SDS011;17763;48.730;9.136;2023-05-07T02:15:22;5.38;;;4.80;;
31112;SDS011;17763;48.730;9.136;2023-05-07T02:18:03;4.82;;;4.40;;
31112;SDS011;17763;48.730;9.136;2023-05-07T02:20:37;6.05;;;5.22;;
31112;SDS011;17763;48.730;9.136;2023-05-07T02:23:02;4.78;;;4.35;;
31112;SDS011;17763;48.730;9.136;2023-05-07T02:25:28;5.40;;;4.88;;
31112;SDS011;17763;48.730;9.136;2023-05-07T02:27:55;5.35;;;4.85;;
31112;SDS011;17763;48.730;9.136;2023-05-07T02:30:22;5.85;;;5.35;;
31112;SDS011;17763;48.730;9.136;2023-05-07T02:32:50;5.43;;;4.72;;
31112;SDS011;17763;48.730;9.136;2023-05-07T02:35:16;5.78;;;5.18;;
31112;SDS011;17763;48.730;9.136;2023-05-07T02:37:43;5.15;;;4.68;;
31112;SDS011;17763;48.730;9.136;2023-05-07T02:40:09;5.45;;;4.97;;
31112;SDS011;17763;48.730;9.136;2023-05-07T02:42:36;6.35;;;4.13;;
31112;SDS011;17763;48.730;9.136;2023-05-07T02:45:01;7.63;;;4.68;;
31112;SDS011;17763;48.730;9.136;2023-05-07T02:47:27;5.65;;;4.82;;
31112;SDS011;17763;48.730;9.136;2023-05-07T02:49:53;6.70;;;5.22;;
31112;SDS011;17763;48.730;9.136;2023-05-07T02:52:20;5.72;;;5.20;;
31112;SDS011;17763;48.730;9.136;2023-05-07T02:54:46;5.40;;;4.78;;
31112;SDS011;17763;48.730;9.136;2023-05-07T02:57:12;5.28;;;4.78;;
31112;SDS011;17763;48.730;9.136;2023-05-07T02:59:37;4.95;;;4.45;;
31112;SDS011;17763;48.730;9.136;2023-05-07T03:02:05;5.93;;;5.40;;
31112;SDS011;17763;48.730;9.136;2023-05-07T03:04:31;5.68;;;4.50;;
31112;SDS011;17763;48.730;9.136;2023-05-07T03:06:59;5.03;;;4.57;;
31112;SDS011;17763;48.730;9.136;2023-05-07T03:09:25;4.82;;;4.43;;
31112;SDS011;17763;48.730;9.136;2023-05-07T03:11:51;4.38;;;4.07;;
31112;SDS011;17763;48.730;9.136;2023-05-07T03:14:16;4.32;;;4.03;;
31112;SDS011;17763;48.730;9.136;2023-05-07T03:16:42;3.38;;;3.17;;
31112;SDS011;17763;48.730;9.136;2023-05-07T03:19:08;4.38;;;3.97;;
31112;SDS011;17763;48.730;9.136;2023-05-07T03:21:36;4.75;;;4.18;;
31112;SDS011;17763;48.730;9.136;2023-05-07T03:24:04;6.15;;;4.70;;
31112;SDS011;17763;48.730;9.136;2023-05-07T03:26:30;4.50;;;4.15;;
31112;SDS011;17763;48.730;9.136;2023-05-07T03:28:56;4.35;;;4.00;;
31112;SDS011;17763;48.730;9.136;2023-05-07T03:31:22;4.72;;;4.32;;
31112;SDS011;17763;48.730;9.136;2023-05-07T03:33:54;5.22;;;4.50;;
31112;SDS011;17763;48.730;9.136;2023-05-07T03:36:24;4.57;;;4.25;;
31112;SDS011;17763;48.730;9.136;2023-05-07T03:38:52;5.95;;;4.50;;
31112;SDS011;17763;48.730;9.136;2023-05-07T03:41:18;5.03;;;4.30;;
31112;SDS011;17763;48.730;9.136;2023-05-07T03:43:43;4.85;;;4.47;;
31112;SDS011;17763;48.730;9.136;2023-05-07T03:46:12;5.93;;;4.90;;
31112;SDS011;17763;48.730;9.136;2023-05-07T03:48:37;5.43;;;4.93;;
31112;SDS011;17763;48.730;9.136;2023-05-07T03:51:03;9.77;;;5.32;;
31112;SDS011;17763;48.730;9.136;2023-05-07T03:53:29;5.28;;;4.78;;
31112;SDS011;17763;48.730;9.136;2023-05-07T03:55:55;6.60;;;5.82;;
31112;SDS011;17763;48.730;9.136;2023-05-07T03:58:20;5.50;;;5.00;;
31112;SDS011;17763;48.730;9.136;2023-05-07T04:00:48;4.78;;;4.38;;
31112;SDS011;17763;48.730;9.136;2023-05-07T04:03:14;5.45;;;4.65;;
31112;SDS011;17763;48.730;9.136;2023-05-07T04:05:40;5.13;;;4.63;;
31112;SDS011;17763;48.730;9.136;2023-05-07T04:08:06;4.80;;;4.35;;
31112;SDS011;17763;48.730;9.136;2023-05-07T04:10:32;5.85;;;4.60;;
31112;SDS011;17763;48.730;9.136;2023-05-07T04:12:58;5.40;;;4.47;;
31112;SDS011;17763;48.730;9.136;2023-05-07T04:15:23;4.55;;;4.25;;
31112;SDS011;17763;48.730;9.136;2023-05-07T04:17:49;4.95;;;4.40;;
31112;SDS011;17763;48.730;9.136;2023-05-07T04:20:15;5.30;;;4.85;;
31112;SDS011;17763;48.730;9.136;2023-05-07T04:22:42;4.95;;;4.50;;
31112;SDS011;17763;48.730;9.136;2023-05-07T04:25:08;5.32;;;4.50;;
31112;SDS011;17763;48.730;9.136;2023-05-07T04:27:34;6.40;;;4.90;;
31112;SDS011;17763;48.730;9.136;2023-05-07T04:30:01;5.00;;;4.55;;
31112;SDS011;17763;48.730;9.136;2023-05-07T04:32:27;5.40;;;4.90;;
31112;SDS011;17763;48.730;9.136;2023-05-07T04:34:54;6.75;;;4.30;;
31112;SDS011;17763;48.730;9.136;2023-05-07T04:37:20;6.47;;;4.55;;
31112;SDS011;17763;48.730;9.136;2023-05-07T04:39:46;4.53;;;4.20;;
31112;SDS011;17763;48.730;9.136;2023-05-07T04:42:15;4.22;;;3.85;;
31112;SDS011;17763;48.730;9.136;2023-05-07T04:44:43;5.13;;;4.47;;
31112;SDS011;17763;48.730;9.136;2023-05-07T04:47:09;5.45;;;4.40;;
31112;SDS011;17763;48.730;9.136;2023-05-07T04:49:36;4.65;;;3.97;;
31112;SDS011;17763;48.730;9.136;2023-05-07T04:52:02;6.38;;;4.30;;
31112;SDS011;17763;48.730;9.136;2023-05-07T04:54:30;6.03;;;4.15;;
31112;SDS011;17763;48.730;9.136;2023-05-07T04:56:56;4.20;;;3.80;;
31112;SDS011;17763;48.730;9.136;2023-05-07T04:59:21;4.97;;;4.30;;
31112;SDS011;17763;48.730;9.136;2023-05-07T05:01:47;6.05;;;5.28;;
31112;SDS011;17763;48.730;9.136;2023-05-07T05:04:13;4.50;;;4.20;;
31112;SDS011;17763;48.730;9.136;2023-05-07T05:06:39;4.72;;;4.32;;
31112;SDS011;17763;48.730;9.136;2023-05-07T05:09:04;5.72;;;4.57;;
31112;SDS011;17763;48.730;9.136;2023-05-07T05:11:31;4.88;;;4.28;;
31112;SDS011;17763;48.730;9.136;2023-05-07T05:13:56;4.88;;;4.47;;
31112;SDS011;17763;48.730;9.136;2023-05-07T05:16:23;5.03;;;4.53;;
31112;SDS011;17763;48.730;9.136;2023-05-07T05:18:51;6.55;;;5.45;;
31112;SDS011;17763;48.730;9.136;2023-05-07T05:21:19;7.05;;;4.40;;
31112;SDS011;17763;48.730;9.136;2023-05-07T05:23:47;5.43;;;4.53;;
31112;SDS011;17763;48.730;9.136;2023-05-07T05:26:13;4.40;;;4.10;;
31112;SDS011;17763;48.730;9.136;2023-05-07T05:28:41;7.82;;;4.88;;
31112;SDS011;17763;48.730;9.136;2023-05-07T05:31:06;5.30;;;4.88;;
31112;SDS011;17763;48.730;9.136;2023-05-07T05:33:32;4.72;;;4.32;;
31112;SDS011;17763;48.730;9.136;2023-05-07T05:35:58;6.55;;;4.40;;
31112;SDS011;17763;48.730;9.136;2023-05-07T05:38:26;4.45;;;3.78;;
31112;SDS011;17763;48.730;9.136;2023-05-07T05:40:53;7.18;;;4.20;;
31112;SDS011;17763;48.730;9.136;2023-05-07T05:43:19;4.55;;;4.25;;
31112;SDS011;17763;48.730;9.136;2023-05-07T05:45:47;4.60;;;4.20;;
31112;SDS011;17763;48.730;9.136;2023-05-07T05:48:13;4.43;;;4.03;;
31112;SDS011;17763;48.730;9.136;2023-05-07T05:50:38;4.45;;;4.10;;
31112;SDS011;17763;48.730;9.136;2023-05-07T05:53:07;5.65;;;4.03;;
31112;SDS011;17763;48.730;9.136;2023-05-07T05:55:33;5.32;;;3.40;;
31112;SDS011;17763;48.730;9.136;2023-05-07T05:58:01;4.25;;;3.90;;
31112;SDS011;17763;48.730;9.136;2023-05-07T06:00:29;4.60;;;4.20;;
31112;SDS011;17763;48.730;9.136;2023-05-07T06:02:54;6.22;;;4.25;;
31112;SDS011;17763;48.730;9.136;2023-05-07T06:05:30;4.43;;;4.13;;
31112;SDS011;17763;48.730;9.136;2023-05-07T06:07:55;4.15;;;3.80;;
31112;SDS011;17763;48.730;9.136;2023-05-07T06:10:23;3.55;;;3.33;;
31112;SDS011;17763;48.730;9.136;2023-05-07T06:12:52;3.83;;;3.42;;
31112;SDS011;17763;48.730;9.136;2023-05-07T06:15:19;5.35;;;4.07;;
31112;SDS011;17763;48.730;9.136;2023-05-07T06:17:45;3.53;;;3.22;;
31112;SDS011;17763;48.730;9.136;2023-05-07T06:20:11;3.55;;;3.25;;
31112;SDS011;17763;48.730;9.136;2023-05-07T06:22:37;3.47;;;3.28;;
31112;SDS011;17763;48.730;9.136;2023-05-07T06:25:03;3.65;;;3.15;;
31112;SDS011;17763;48.730;9.136;2023-05-07T06:27:28;3.63;;;3.28;;
31112;SDS011;17763;48.730;9.136;2023-05-07T06:29:54;4.20;;;3.45;;
31112;SDS011;17763;48.730;9.136;2023-05-07T06:32:20;5.60;;;3.65;;
31112;SDS011;17763;48.730;9.136;2023-05-07T06:34:46;3.95;;;3.65;;
31112;SDS011;17763;48.730;9.136;2023-05-07T06:37:11;4.32;;;3.90;;
31112;SDS011;17763;48.730;9.136;2023-05-07T06:39:39;3.80;;;3.50;;
31112;SDS011;17763;48.730;9.136;2023-05-07T06:42:05;4.45;;;3.92;;
31112;SDS011;17763;48.730;9.136;2023-05-07T06:44:31;4.53;;;4.13;;
31112;SDS011;17763;48.730;9.136;2023-05-07T06:46:57;4.15;;;3.75;;
31112;SDS011;17763;48.730;9.136;2023-05-07T06:49:23;4.10;;;3.80;;
31112;SDS011;17763;48.730;9.136;2023-05-07T06:51:51;5.00;;;4.50;;
31112;SDS011;17763;48.730;9.136;2023-05-07T06:54:17;4.63;;;4.15;;
31112;SDS011;17763;48.730;9.136;2023-05-07T06:56:43;3.53;;;3.33;;
31112;SDS011;17763;48.730;9.136;2023-05-07T06:59:09;4.65;;;4.25;;
31112;SDS011;17763;48.730;9.136;2023-05-07T07:01:35;4.68;;;4.05;;
31112;SDS011;17763;48.730;9.136;2023-05-07T07:04:00;4.97;;;3.70;;
31112;SDS011;17763;48.730;9.136;2023-05-07T07:06:26;4.50;;;4.10;;
31112;SDS011;17763;48.730;9.136;2023-05-07T07:08:52;5.07;;;4.15;;
31112;SDS011;17763;48.730;9.136;2023-05-07T07:11:20;7.03;;;4.05;;
31112;SDS011;17763;48.730;9.136;2023-05-07T07:13:46;5.03;;;4.53;;
31112;SDS011;17763;48.730;9.136;2023-05-07T07:16:11;5.03;;;4.05;;
31112;SDS011;17763;48.730;9.136;2023-05-07T07:18:37;4.55;;;4.25;;
31112;SDS011;17763;48.730;9.136;2023-05-07T07:21:03;4.22;;;3.90;;
31112;SDS011;17763;48.730;9.136;2023-05-07T07:23:29;7.07;;;4.50;;
31112;SDS011;17763;48.730;9.136;2023-05-07T07:25:55;4.82;;;4.30;;
31112;SDS011;17763;48.730;9.136;2023-05-07T07:28:21;4.93;;;4.53;;
31112;SDS011;17763;48.730;9.136;2023-05-07T07:30:46;4.80;;;4.40;;
31112;SDS011;17763;48.730;9.136;2023-05-07T07:33:12;4.15;;;3.92;;
31112;SDS011;17763;48.730;9.136;2023-05-07T07:35:40;4.60;;;4.07;;
31112;SDS011;17763;48.730;9.136;2023-05-07T07:38:06;5.35;;;4.82;;
31112;SDS011;17763;48.730;9.136;2023-05-07T07:40:34;5.38;;;4.88;;
31112;SDS011;17763;48.730;9.136;2023-05-07T07:43:00;4.70;;;4.30;;
31112;SDS011;17763;48.730;9.136;2023-05-07T07:45:30;4.22;;;3.90;;
31112;SDS011;17763;48.730;9.136;2023-05-07T07:47:56;5.07;;;3.80;;
31112;SDS011;17763;48.730;9.136;2023-05-07T07:50:22;3.65;;;3.45;;
31112;SDS011;17763;48.730;9.136;2023-05-07T07:52:48;5.72;;;4.35;;
31112;SDS011;17763;48.730;9.136;2023-05-07T07:55:14;5.88;;;4.15;;
31112;SDS011;17763;48.730;9.136;2023-05-07T07:57:43;5.28;;;4.10;;
31112;SDS011;17763;48.730;9.136;2023-05-07T08:00:08;6.03;;;3.53;;
31112;SDS011;17763;48.730;9.136;2023-05-07T08:02:34;3.78;;;3.50;;
31112;SDS011;17763;48.730;9.136;2023-05-07T08:05:00;5.03;;;4.00;;
31112;SDS011;17763;48.730;9.136;2023-05-07T08:07:28;6.15;;;4.15;;
31112;SDS011;17763;48.730;9.136;2023-05-07T08:09:54;4.05;;;3.60;;
31112;SDS011;17763;48.730;9.136;2023-05-07T08:12:20;3.58;;;3.17;;
31112;SDS011;17763;48.730;9.136;2023-05-07T08:14:46;3.97;;;3.22;;
31112;SDS011;17763;48.730;9.136;2023-05-07T08:17:14;2.90;;;2.70;;
31112;SDS011;17763;48.730;9.136;2023-05-07T08:19:41;3.30;;;3.00;;
31112;SDS011;17763;48.730;9.136;2023-05-07T08:22:07;2.92;;;2.72;;
31112;SDS011;17763;48.730;9.136;2023-05-07T08:24:33;3.05;;;2.55;;
31112;SDS011;17763;48.730;9.136;2023-05-07T08:26:59;3.10;;;2.78;;
31112;SDS011;17763;48.730;9.136;2023-05-07T08:29:29;2.97;;;2.75;;
31112;SDS011;17763;48.730;9.136;2023-05-07T08:31:55;3.38;;;2.50;;
31112;SDS011;17763;48.730;9.136;2023-05-07T08:34:21;3.10;;;2.90;;
31112;SDS011;17763;48.730;9.136;2023-05-07T08:36:47;3.10;;;2.75;;
31112;SDS011;17763;48.730;9.136;2023-05-07T08:39:13;3.25;;;2.90;;
31112;SDS011;17763;48.730;9.136;2023-05-07T08:41:45;4.40;;;2.70;;
31112;SDS011;17763;48.730;9.136;2023-05-07T08:44:13;4.57;;;2.90;;
31112;SDS011;17763;48.730;9.136;2023-05-07T08:46:42;2.72;;;2.53;;
31112;SDS011;17763;48.730;9.136;2023-05-07T08:49:11;3.60;;;3.30;;
31112;SDS011;17763;48.730;9.136;2023-05-07T08:51:37;3.17;;;2.95;;
31112;SDS011;17763;48.730;9.136;2023-05-07T08:54:03;5.03;;;3.88;;
31112;SDS011;17763;48.730;9.136;2023-05-07T08:56:30;4.63;;;4.22;;
31112;SDS011;17763;48.730;9.136;2023-05-07T08:58:56;3.67;;;3.38;;
31112;SDS011;17763;48.730;9.136;2023-05-07T09:01:23;5.65;;;3.20;;
31112;SDS011;17763;48.730;9.136;2023-05-07T09:03:52;3.83;;;2.97;;
31112;SDS011;17763;48.730;9.136;2023-05-07T09:06:18;2.95;;;2.75;;
31112;SDS011;17763;48.730;9.136;2023-05-07T09:08:50;3.47;;;3.20;;
31112;SDS011;17763;48.730;9.136;2023-05-07T09:11:19;3.43;;;3.20;;
31112;SDS011;17763;48.730;9.136;2023-05-07T09:13:46;3.65;;;3.35;;
31112;SDS011;17763;48.730;9.136;2023-05-07T09:16:12;3.50;;;2.97;;
31112;SDS011;17763;48.730;9.136;2023-05-07T09:18:41;3.63;;;3.10;;
31112;SDS011;17763;48.730;9.136;2023-05-07T09:21:14;3.50;;;3.20;;
31112;SDS011;17763;48.730;9.136;2023-05-07T09:23:41;3.97;;;2.70;;
31112;SDS011;17763;48.730;9.136;2023-05-07T09:26:07;3.13;;;2.85;;
31112;SDS011;17763;48.730;9.136;2023-05-07T09:28:39;3.72;;;3.00;;
31112;SDS011;17763;48.730;9.136;2023-05-07T09:31:11;3.85;;;2.88;;
31112;SDS011;17763;48.730;9.136;2023-05-07T09:33:38;2.80;;;2.58;;
31112;SDS011;17763;48.730;9.136;2023-05-07T09:36:05;2.50;;;2.30;;
31112;SDS011;17763;48.730;9.136;2023-05-07T09:38:32;3.30;;;2.45;;
31112;SDS011;17763;48.730;9.136;2023-05-07T09:41:07;3.20;;;2.90;;
31112;SDS011;17763;48.730;9.136;2023-05-07T09:43:35;2.78;;;2.42;;
31112;SDS011;17763;48.730;9.136;2023-05-07T09:46:14;2.47;;;2.28;;
31112;SDS011;17763;48.730;9.136;2023-05-07T09:48:45;5.20;;;2.45;;
31112;SDS011;17763;48.730;9.136;2023-05-07T09:53:43;4.13;;;2.88;;
31112;SDS011;17763;48.730;9.136;2023-05-07T09:56:11;2.55;;;2.40;;
31112;SDS011;17763;48.730;9.136;2023-05-07T09:58:42;2.40;;;2.30;;
31112;SDS011;17763;48.730;9.136;2023-05-07T10:01:10;3.50;;;3.20;;
31112;SDS011;17763;48.730;9.136;2023-05-07T10:03:37;2.58;;;2.40;;
31112;SDS011;17763;48.730;9.136;2023-05-07T10:06:09;2.60;;;2.40;;
31112;SDS011;17763;48.730;9.136;2023-05-07T10:08:36;5.30;;;3.47;;
31112;SDS011;17763;48.730;9.136;2023-05-07T10:11:05;3.00;;;2.80;;
31112;SDS011;17763;48.730;9.136;2023-05-07T10:13:33;3.72;;;3.42;;
31112;SDS011;17763;48.730;9.136;2023-05-07T10:16:02;3.78;;;3.40;;
31112;SDS011;17763;48.730;9.136;2023-05-07T10:18:31;4.07;;;2.92;;
31112;SDS011;17763;48.730;9.136;2023-05-07T10:23:40;3.17;;;2.58;;
31112;SDS011;17763;48.730;9.136;2023-05-07T10:26:12;3.85;;;2.70;;
31112;SDS011;17763;48.730;9.136;2023-05-07T10:28:41;4.35;;;3.97;;
31112;SDS011;17763;48.730;9.136;2023-05-07T10:31:18;4.93;;;3.60;;
31112;SDS011;17763;48.730;9.136;2023-05-07T10:33:55;3.50;;;3.10;;
31112;SDS011;17763;48.730;9.136;2023-05-07T10:36:23;4.90;;;4.40;;
31112;SDS011;17763;48.730;9.136;2023-05-07T10:38:50;3.80;;;2.80;;
31112;SDS011;17763;48.730;9.136;2023-05-07T10:41:18;3.88;;;3.53;;
31112;SDS011;17763;48.730;9.136;2023-05-07T10:43:44;12.05;;;10.88;;
31112;SDS011;17763;48.730;9.136;2023-05-07T10:49:24;11.05;;;6.35;;
31112;SDS011;17763;48.730;9.136;2023-05-07T10:51:36;3.03;;;2.60;;
31112;SDS011;17763;48.730;9.136;2023-05-07T10:56:38;3.50;;;2.97;;
31112;SDS011;17763;48.730;9.136;2023-05-07T11:01:49;3.00;;;2.70;;
31112;SDS011;17763;48.730;9.136;2023-05-07T11:04:18;3.85;;;2.65;;
31112;SDS011;17763;48.730;9.136;2023-05-07T11:15:05;3.25;;;2.97;;
31112;SDS011;17763;48.730;9.136;2023-05-07T11:17:32;4.95;;;2.20;;
31112;SDS011;17763;48.730;9.136;2023-05-07T11:19:59;2.10;;;2.00;;
31112;SDS011;17763;48.730;9.136;2023-05-07T11:25:00;11.52;;;10.10;;
31112;SDS011;17763;48.730;9.136;2023-05-07T11:27:32;3.83;;;2.47;;
31112;SDS011;17763;48.730;9.136;2023-05-07T11:29:58;2.35;;;2.00;;
31112;SDS011;17763;48.730;9.136;2023-05-07T11:32:26;3.00;;;2.75;;
31112;SDS011;17763;48.730;9.136;2023-05-07T11:37:26;5.20;;;2.22;;
31112;SDS011;17763;48.730;9.136;2023-05-07T11:40:03;2.38;;;2.17;;
31112;SDS011;17763;48.730;9.136;2023-05-07T11:42:38;7.20;;;2.35;;
31112;SDS011;17763;48.730;9.136;2023-05-07T11:45:05;2.70;;;1.90;;
31112;SDS011;17763;48.730;9.136;2023-05-07T11:47:31;2.20;;;1.90;;
31112;SDS011;17763;48.730;9.136;2023-05-07T11:50:04;2.22;;;2.05;;
31112;SDS011;17763;48.730;9.136;2023-05-07T11:52:31;4.63;;;2.10;;
31112;SDS011;17763;48.730;9.136;2023-05-07T11:55:00;2.40;;;2.20;;
31112;SDS011;17763;48.730;9.136;2023-05-07T11:57:28;4.95;;;2.30;;
31112;SDS011;17763;48.730;9.136;2023-05-07T11:59:54;2.53;;;2.28;;
31112;SDS011;17763;48.730;9.136;2023-05-07T12:02:21;2.63;;;2.25;;
31112;SDS011;17763;48.730;9.136;2023-05-07T12:04:47;2.40;;;2.20;;
31112;SDS011;17763;48.730;9.136;2023-05-07T12:07:13;4.32;;;3.15;;
31112;SDS011;17763;48.730;9.136;2023-05-07T12:09:40;5.70;;;3.38;;
31112;SDS011;17763;48.730;9.136;2023-05-07T12:12:06;7.78;;;3.10;;
31112;SDS011;17763;48.730;9.136;2023-05-07T12:14:32;4.53;;;3.55;;
31112;SDS011;17763;48.730;9.136;2023-05-07T12:17:02;3.42;;;2.90;;
31112;SDS011;17763;48.730;9.136;2023-05-07T12:19:29;4.97;;;2.65;;
31112;SDS011;17763;48.730;9.136;2023-05-07T12:21:58;11.55;;;2.85;;
31112;SDS011;17763;48.730;9.136;2023-05-07T12:24:26;5.95;;;3.00;;
31112;SDS011;17763;48.730;9.136;2023-05-07T12:26:51;3.72;;;2.50;;
31112;SDS011;17763;48.730;9.136;2023-05-07T12:29:21;6.43;;;3.58;;
31112;SDS011;17763;48.730;9.136;2023-05-07T12:31:47;3.83;;;2.22;;
31112;SDS011;17763;48.730;9.136;2023-05-07T12:34:17;5.13;;;2.17;;
31112;SDS011;17763;48.730;9.136;2023-05-07T12:36:43;2.65;;;2.20;;
31112;SDS011;17763;48.730;9.136;2023-05-07T12:39:09;8.60;;;3.22;;
31112;SDS011;17763;48.730;9.136;2023-05-07T12:41:53;7.22;;;3.03;;
31112;SDS011;17763;48.730;9.136;2023-05-07T12:44:23;2.08;;;1.67;;
31112;SDS011;17763;48.730;9.136;2023-05-07T12:46:49;1.60;;;1.50;;
31112;SDS011;17763;48.730;9.136;2023-05-07T12:49:15;1.35;;;1.20;;
31112;SDS011;17763;48.730;9.136;2023-05-07T12:51:42;1.20;;;1.10;;
31112;SDS011;17763;48.730;9.136;2023-05-07T12:54:08;3.10;;;1.65;;
31112;SDS011;17763;48.730;9.136;2023-05-07T12:56:37;2.15;;;1.77;;
31112;SDS011;17763;48.730;9.136;2023-05-07T12:59:03;2.10;;;1.30;;
31112;SDS011;17763;48.730;9.136;2023-05-07T13:01:29;2.10;;;1.55;;
31112;SDS011;17763;48.730;9.136;2023-05-07T13:03:57;3.90;;;1.48;;
31112;SDS011;17763;48.730;9.136;2023-05-07T13:06:26;4.30;;;2.03;;
31112;SDS011;17763;48.730;9.136;2023-05-07T13:08:52;1.40;;;1.30;;
31112;SDS011;17763;48.730;9.136;2023-05-07T13:11:18;1.90;;;1.55;;
31112;SDS011;17763;48.730;9.136;2023-05-07T13:13:44;1.40;;;1.23;;
31112;SDS011;17763;48.730;9.136;2023-05-07T13:16:10;1.40;;;1.30;;
31112;SDS011;17763;48.730;9.136;2023-05-07T13:18:37;1.33;;;1.23;;
31112;SDS011;17763;48.730;9.136;2023-05-07T13:21:04;2.90;;;1.38;;
31112;SDS011;17763;48.730;9.136;2023-05-07T13:23:30;3.35;;;1.75;;
31112;SDS011;17763;48.730;9.136;2023-05-07T13:25:56;2.38;;;1.60;;
31112;SDS011;17763;48.730;9.136;2023-05-07T13:28:22;5.80;;;1.90;;
31112;SDS011;17763;48.730;9.136;2023-05-07T13:30:52;3.53;;;1.40;;
31112;SDS011;17763;48.730;9.136;2023-05-07T13:33:17;2.58;;;1.30;;
31112;SDS011;17763;48.730;9.136;2023-05-07T13:35:44;1.30;;;1.10;;
31112;SDS011;17763;48.730;9.136;2023-05-07T13:38:10;1.83;;;1.27;;
31112;SDS011;17763;48.730;9.136;2023-05-07T13:40:35;3.95;;;1.00;;
31112;SDS011;17763;48.730;9.136;2023-05-07T13:43:01;4.03;;;1.35;;
31112;SDS011;17763;48.730;9.136;2023-05-07T13:45:27;1.95;;;1.30;;
31112;SDS011;17763;48.730;9.136;2023-05-07T13:47:56;2.10;;;1.00;;
31112;SDS011;17763;48.730;9.136;2023-05-07T13:50:25;1.85;;;1.67;;
31112;SDS011;17763;48.730;9.136;2023-05-07T13:52:55;2.38;;;1.70;;
31112;SDS011;17763;48.730;9.136;2023-05-07T13:55:23;2.65;;;2.20;;
31112;SDS011;17763;48.730;9.136;2023-05-07T13:57:56;4.20;;;1.90;;
31112;SDS011;17763;48.730;9.136;2023-05-07T14:00:24;5.20;;;2.60;;
31112;SDS011;17763;48.730;9.136;2023-05-07T14:02:53;4.43;;;2.60;;
31112;SDS011;17763;48.730;9.136;2023-05-07T14:05:21;12.23;;;3.53;;
31112;SDS011;17763;48.730;9.136;2023-05-07T14:07:51;6.60;;;4.30;;
31112;SDS011;17763;48.730;9.136;2023-05-07T14:10:18;5.50;;;3.70;;
31112;SDS011;17763;48.730;9.136;2023-05-07T14:12:46;5.28;;;3.50;;
31112;SDS011;17763;48.730;9.136;2023-05-07T14:15:12;7.97;;;4.15;;
31112;SDS011;17763;48.730;9.136;2023-05-07T14:17:38;3.92;;;3.38;;
31112;SDS011;17763;48.730;9.136;2023-05-07T14:20:05;6.40;;;3.30;;
31112;SDS011;17763;48.730;9.136;2023-05-07T14:22:34;4.15;;;2.92;;
31112;SDS011;17763;48.730;9.136;2023-05-07T14:24:59;4.18;;;3.10;;
31112;SDS011;17763;48.730;9.136;2023-05-07T14:27:28;6.65;;;3.33;;
31112;SDS011;17763;48.730;9.136;2023-05-07T14:29:54;3.97;;;3.17;;
31112;SDS011;17763;48.730;9.136;2023-05-07T14:32:20;4.38;;;4.00;;
31112;SDS011;17763;48.730;9.136;2023-05-07T14:34:50;8.88;;;3.80;;
31112;SDS011;17763;48.730;9.136;2023-05-07T14:37:15;4.45;;;3.30;;
31112;SDS011;17763;48.730;9.136;2023-05-07T14:39:41;3.38;;;3.03;;
31112;SDS011;17763;48.730;9.136;2023-05-07T14:42:07;3.42;;;3.03;;
31112;SDS011;17763;48.730;9.136;2023-05-07T14:44:33;3.70;;;3.10;;
31112;SDS011;17763;48.730;9.136;2023-05-07T14:47:01;4.60;;;3.42;;
31112;SDS011;17763;48.730;9.136;2023-05-07T14:49:30;5.13;;;3.35;;
31112;SDS011;17763;48.730;9.136;2023-05-07T14:51:57;5.97;;;3.58;;
31112;SDS011;17763;48.730;9.136;2023-05-07T14:54:24;6.45;;;3.75;;
31112;SDS011;17763;48.730;9.136;2023-05-07T14:56:50;6.63;;;3.45;;
31112;SDS011;17763;48.730;9.136;2023-05-07T14:59:16;4.32;;;3.90;;
31112;SDS011;17763;48.730;9.136;2023-05-07T15:01:46;8.25;;;3.58;;
31112;SDS011;17763;48.730;9.136;2023-05-07T15:04:12;7.90;;;4.22;;
31112;SDS011;17763;48.730;9.136;2023-05-07T15:06:38;4.10;;;3.28;;
31112;SDS011;17763;48.730;9.136;2023-05-07T15:09:03;3.97;;;3.65;;
31112;SDS011;17763;48.730;9.136;2023-05-07T15:11:29;3.33;;;3.03;;
31112;SDS011;17763;48.730;9.136;2023-05-07T15:13:57;8.40;;;6.07;;